sensor_id;sensor_type;location;lat;lon;timestamp;temperature;humidity
28087;DHT22;15392;48.912;8.380;2024-02-21T00:01:16;13.70;53.10
28087;DHT22;15392;48.912;8.380;2024-02-21T00:04:02;13.70;52.90
28087;DHT22;15392;48.912;8.380;2024-02-21T00:06:48;13.70;52.90
28087;DHT22;15392;48.912;8.380;2024-02-21T00:09:34;13.70;52.90
28087;DHT22;15392;48.912;8.380;2024-02-21T00:12:20;13.70;52.70
28087;DHT22;15392;48.912;8.380;2024-02-21T00:15:07;13.70;52.90
28087;DHT22;15392;48.912;8.380;2024-02-21T00:17:53;13.70;52.90
28087;DHT22;15392;48.912;8.380;2024-02-21T00:20:39;13.70;52.80
28087;DHT22;15392;48.912;8.380;2024-02-21T00:23:25;13.70;52.70
28087;DHT22;15392;48.912;8.380;2024-02-21T00:26:12;13.60;52.60
28087;DHT22;15392;48.912;8.380;2024-02-21T00:28:59;13.70;52.70
28087;DHT22;15392;48.912;8.380;2024-02-21T00:31:45;13.70;52.80
28087;DHT22;15392;48.912;8.380;2024-02-21T00:34:31;13.70;52.70
28087;DHT22;15392;48.912;8.380;2024-02-21T00:37:17;13.60;52.60
28087;DHT22;15392;48.912;8.380;2024-02-21T00:40:03;13.70;52.50
28087;DHT22;15392;48.912;8.380;2024-02-21T00:42:51;13.70;52.40
28087;DHT22;15392;48.912;8.380;2024-02-21T00:45:37;13.70;52.50
28087;DHT22;15392;48.912;8.380;2024-02-21T00:48:23;13.70;52.50
28087;DHT22;15392;48.912;8.380;2024-02-21T00:51:09;13.70;52.40
28087;DHT22;15392;48.912;8.380;2024-02-21T00:53:55;13.70;52.30
28087;DHT22;15392;48.912;8.380;2024-02-21T00:56:41;13.80;52.50
28087;DHT22;15392;48.912;8.380;2024-02-21T00:59:27;13.80;52.20
28087;DHT22;15392;48.912;8.380;2024-02-21T01:02:13;13.80;52.50
28087;DHT22;15392;48.912;8.380;2024-02-21T01:04:59;13.80;52.30
28087;DHT22;15392;48.912;8.380;2024-02-21T01:07:45;13.80;52.30
28087;DHT22;15392;48.912;8.380;2024-02-21T01:10:31;13.80;52.40
28087;DHT22;15392;48.912;8.380;2024-02-21T01:13:20;13.90;52.50
28087;DHT22;15392;48.912;8.380;2024-02-21T01:16:06;13.90;52.50
28087;DHT22;15392;48.912;8.380;2024-02-21T01:18:53;13.90;52.50
28087;DHT22;15392;48.912;8.380;2024-02-21T01:21:39;14.00;52.70
28087;DHT22;15392;48.912;8.380;2024-02-21T01:24:25;13.90;52.80
28087;DHT22;15392;48.912;8.380;2024-02-21T01:27:11;14.00;52.90
28087;DHT22;15392;48.912;8.380;2024-02-21T01:29:57;13.90;52.90
28087;DHT22;15392;48.912;8.380;2024-02-21T01:32:43;14.00;53.10
28087;DHT22;15392;48.912;8.380;2024-02-21T01:35:29;14.00;53.00
28087;DHT22;15392;48.912;8.380;2024-02-21T01:38:15;14.00;53.00
28087;DHT22;15392;48.912;8.380;2024-02-21T01:41:01;13.90;53.00
28087;DHT22;15392;48.912;8.380;2024-02-21T01:43:47;13.90;53.00
28087;DHT22;15392;48.912;8.380;2024-02-21T01:46:34;14.00;52.90
28087;DHT22;15392;48.912;8.380;2024-02-21T01:49:21;13.90;52.90
28087;DHT22;15392;48.912;8.380;2024-02-21T01:52:08;13.90;52.80
28087;DHT22;15392;48.912;8.380;2024-02-21T01:54:54;13.90;53.00
28087;DHT22;15392;48.912;8.380;2024-02-21T01:57:42;13.90;53.30
28087;DHT22;15392;48.912;8.380;2024-02-21T02:00:28;13.90;53.40
28087;DHT22;15392;48.912;8.380;2024-02-21T02:03:14;13.90;53.40
28087;DHT22;15392;48.912;8.380;2024-02-21T02:06:05;13.90;53.40
28087;DHT22;15392;48.912;8.380;2024-02-21T02:08:53;13.90;53.40
28087;DHT22;15392;48.912;8.380;2024-02-21T02:11:40;13.90;53.30
28087;DHT22;15392;48.912;8.380;2024-02-21T02:14:26;13.90;53.50
28087;DHT22;15392;48.912;8.380;2024-02-21T02:17:12;13.90;53.60
28087;DHT22;15392;48.912;8.380;2024-02-21T02:19:58;13.90;53.70
28087;DHT22;15392;48.912;8.380;2024-02-21T02:22:47;13.90;53.80
28087;DHT22;15392;48.912;8.380;2024-02-21T02:25:35;13.90;53.90
28087;DHT22;15392;48.912;8.380;2024-02-21T02:28:21;13.90;53.80
28087;DHT22;15392;48.912;8.380;2024-02-21T02:31:08;13.90;53.70
28087;DHT22;15392;48.912;8.380;2024-02-21T02:33:53;13.90;53.70
28087;DHT22;15392;48.912;8.380;2024-02-21T02:36:39;13.90;53.70
28087;DHT22;15392;48.912;8.380;2024-02-21T02:39:25;13.80;53.70
28087;DHT22;15392;48.912;8.380;2024-02-21T02:42:12;13.90;53.70
28087;DHT22;15392;48.912;8.380;2024-02-21T02:44:58;13.80;53.50
28087;DHT22;15392;48.912;8.380;2024-02-21T02:47:47;13.80;53.40
28087;DHT22;15392;48.912;8.380;2024-02-21T02:50:33;13.80;53.40
28087;DHT22;15392;48.912;8.380;2024-02-21T02:53:19;13.70;53.50
28087;DHT22;15392;48.912;8.380;2024-02-21T02:56:05;13.70;53.70
28087;DHT22;15392;48.912;8.380;2024-02-21T02:58:51;13.70;53.80
28087;DHT22;15392;48.912;8.380;2024-02-21T03:01:37;13.70;53.70
28087;DHT22;15392;48.912;8.380;2024-02-21T03:04:24;13.70;53.70
28087;DHT22;15392;48.912;8.380;2024-02-21T03:07:10;13.60;53.60
28087;DHT22;15392;48.912;8.380;2024-02-21T03:09:57;13.60;53.70
28087;DHT22;15392;48.912;8.380;2024-02-21T03:12:43;13.60;53.70
28087;DHT22;15392;48.912;8.380;2024-02-21T03:15:29;13.60;53.60
28087;DHT22;15392;48.912;8.380;2024-02-21T03:18:15;13.50;53.60
28087;DHT22;15392;48.912;8.380;2024-02-21T03:21:02;13.50;53.60
28087;DHT22;15392;48.912;8.380;2024-02-21T03:23:48;13.40;53.50
28087;DHT22;15392;48.912;8.380;2024-02-21T03:26:34;13.40;53.50
28087;DHT22;15392;48.912;8.380;2024-02-21T03:29:20;13.30;53.50
28087;DHT22;15392;48.912;8.380;2024-02-21T03:32:06;13.30;53.50
28087;DHT22;15392;48.912;8.380;2024-02-21T03:34:52;13.20;53.50
28087;DHT22;15392;48.912;8.380;2024-02-21T03:37:38;13.20;53.50
28087;DHT22;15392;48.912;8.380;2024-02-21T03:40:24;13.20;53.50
28087;DHT22;15392;48.912;8.380;2024-02-21T03:43:10;13.20;53.60
28087;DHT22;15392;48.912;8.380;2024-02-21T03:45:56;13.10;53.60
28087;DHT22;15392;48.912;8.380;2024-02-21T03:48:42;13.10;53.70
28087;DHT22;15392;48.912;8.380;2024-02-21T03:51:28;13.10;53.70
28087;DHT22;15392;48.912;8.380;2024-02-21T03:54:14;13.00;53.70
28087;DHT22;15392;48.912;8.380;2024-02-21T03:57:00;13.00;54.30
28087;DHT22;15392;48.912;8.380;2024-02-21T03:59:50;13.00;53.80
28087;DHT22;15392;48.912;8.380;2024-02-21T04:02:36;12.90;53.80
28087;DHT22;15392;48.912;8.380;2024-02-21T04:05:22;12.90;53.80
28087;DHT22;15392;48.912;8.380;2024-02-21T04:08:08;12.90;53.90
28087;DHT22;15392;48.912;8.380;2024-02-21T04:10:55;12.90;54.40
28087;DHT22;15392;48.912;8.380;2024-02-21T04:13:41;12.80;53.70
28087;DHT22;15392;48.912;8.380;2024-02-21T04:16:27;12.80;53.70
28087;DHT22;15392;48.912;8.380;2024-02-21T04:19:13;12.70;54.30
28087;DHT22;15392;48.912;8.380;2024-02-21T04:21:59;12.70;53.70
28087;DHT22;15392;48.912;8.380;2024-02-21T04:24:45;12.60;53.70
28087;DHT22;15392;48.912;8.380;2024-02-21T04:27:31;12.60;53.70
28087;DHT22;15392;48.912;8.380;2024-02-21T04:30:17;12.60;53.70
28087;DHT22;15392;48.912;8.380;2024-02-21T04:33:03;12.50;53.70
28087;DHT22;15392;48.912;8.380;2024-02-21T04:35:50;12.50;53.70
28087;DHT22;15392;48.912;8.380;2024-02-21T04:38:36;12.50;53.80
28087;DHT22;15392;48.912;8.380;2024-02-21T04:41:22;12.40;53.80
28087;DHT22;15392;48.912;8.380;2024-02-21T04:44:08;12.40;53.90
28087;DHT22;15392;48.912;8.380;2024-02-21T04:46:54;12.30;53.90
28087;DHT22;15392;48.912;8.380;2024-02-21T04:49:40;12.30;53.90
28087;DHT22;15392;48.912;8.380;2024-02-21T04:52:26;12.30;53.90
28087;DHT22;15392;48.912;8.380;2024-02-21T04:55:13;12.20;53.90
28087;DHT22;15392;48.912;8.380;2024-02-21T04:57:59;12.20;54.00
28087;DHT22;15392;48.912;8.380;2024-02-21T05:00:46;12.20;54.00
28087;DHT22;15392;48.912;8.380;2024-02-21T05:03:32;12.10;54.00
28087;DHT22;15392;48.912;8.380;2024-02-21T05:06:18;12.20;54.10
28087;DHT22;15392;48.912;8.380;2024-02-21T05:09:05;12.10;54.00
28087;DHT22;15392;48.912;8.380;2024-02-21T05:11:54;12.10;54.10
28087;DHT22;15392;48.912;8.380;2024-02-21T05:14:40;12.10;54.10
28087;DHT22;15392;48.912;8.380;2024-02-21T05:17:26;12.00;54.10
28087;DHT22;15392;48.912;8.380;2024-02-21T05:20:12;12.00;54.20
28087;DHT22;15392;48.912;8.380;2024-02-21T05:22:58;12.00;54.20
28087;DHT22;15392;48.912;8.380;2024-02-21T05:25:44;12.00;54.30
28087;DHT22;15392;48.912;8.380;2024-02-21T05:28:30;11.90;54.30
28087;DHT22;15392;48.912;8.380;2024-02-21T05:31:20;11.90;54.30
28087;DHT22;15392;48.912;8.380;2024-02-21T05:34:11;11.90;54.20
28087;DHT22;15392;48.912;8.380;2024-02-21T05:36:57;11.90;54.10
28087;DHT22;15392;48.912;8.380;2024-02-21T05:39:45;11.80;54.20
28087;DHT22;15392;48.912;8.380;2024-02-21T05:42:31;11.80;54.30
28087;DHT22;15392;48.912;8.380;2024-02-21T05:45:18;11.80;54.30
28087;DHT22;15392;48.912;8.380;2024-02-21T05:48:04;11.80;54.30
28087;DHT22;15392;48.912;8.380;2024-02-21T05:50:51;11.80;54.40
28087;DHT22;15392;48.912;8.380;2024-02-21T05:53:37;11.70;54.20
28087;DHT22;15392;48.912;8.380;2024-02-21T05:56:26;11.70;54.10
28087;DHT22;15392;48.912;8.380;2024-02-21T05:59:12;11.70;54.10
28087;DHT22;15392;48.912;8.380;2024-02-21T06:01:58;11.60;54.10
28087;DHT22;15392;48.912;8.380;2024-02-21T06:04:44;11.60;54.10
28087;DHT22;15392;48.912;8.380;2024-02-21T06:07:32;11.50;54.20
28087;DHT22;15392;48.912;8.380;2024-02-21T06:10:18;11.50;54.20
28087;DHT22;15392;48.912;8.380;2024-02-21T06:13:04;11.50;54.30
28087;DHT22;15392;48.912;8.380;2024-02-21T06:15:50;11.50;54.40
28087;DHT22;15392;48.912;8.380;2024-02-21T06:18:36;11.40;54.40
28087;DHT22;15392;48.912;8.380;2024-02-21T06:21:23;11.40;54.40
28087;DHT22;15392;48.912;8.380;2024-02-21T06:24:09;11.40;54.40
28087;DHT22;15392;48.912;8.380;2024-02-21T06:26:55;11.30;54.30
28087;DHT22;15392;48.912;8.380;2024-02-21T06:29:41;11.30;54.30
28087;DHT22;15392;48.912;8.380;2024-02-21T06:32:27;11.30;54.30
28087;DHT22;15392;48.912;8.380;2024-02-21T06:35:13;11.30;54.40
28087;DHT22;15392;48.912;8.380;2024-02-21T06:37:59;11.30;54.50
28087;DHT22;15392;48.912;8.380;2024-02-21T06:40:46;11.30;54.50
28087;DHT22;15392;48.912;8.380;2024-02-21T06:43:35;11.20;54.50
28087;DHT22;15392;48.912;8.380;2024-02-21T06:46:28;11.30;54.70
28087;DHT22;15392;48.912;8.380;2024-02-21T06:49:14;11.30;54.80
28087;DHT22;15392;48.912;8.380;2024-02-21T06:52:01;11.20;54.70
28087;DHT22;15392;48.912;8.380;2024-02-21T06:54:48;11.20;54.70
28087;DHT22;15392;48.912;8.380;2024-02-21T06:57:34;11.20;54.70
28087;DHT22;15392;48.912;8.380;2024-02-21T07:00:20;11.20;54.70
28087;DHT22;15392;48.912;8.380;2024-02-21T07:03:07;11.20;54.60
28087;DHT22;15392;48.912;8.380;2024-02-21T07:05:53;11.30;54.80
28087;DHT22;15392;48.912;8.380;2024-02-21T07:08:39;11.30;54.90
28087;DHT22;15392;48.912;8.380;2024-02-21T07:11:25;11.20;54.90
28087;DHT22;15392;48.912;8.380;2024-02-21T07:14:11;11.30;55.10
28087;DHT22;15392;48.912;8.380;2024-02-21T07:16:57;11.30;55.00
28087;DHT22;15392;48.912;8.380;2024-02-21T07:19:43;11.30;54.90
28087;DHT22;15392;48.912;8.380;2024-02-21T07:22:29;11.40;54.90
28087;DHT22;15392;48.912;8.380;2024-02-21T07:25:15;11.30;54.90
28087;DHT22;15392;48.912;8.380;2024-02-21T07:28:01;11.40;54.80
28087;DHT22;15392;48.912;8.380;2024-02-21T07:30:48;11.40;54.80
28087;DHT22;15392;48.912;8.380;2024-02-21T07:33:34;11.40;54.80
28087;DHT22;15392;48.912;8.380;2024-02-21T07:36:29;11.40;54.80
28087;DHT22;15392;48.912;8.380;2024-02-21T07:39:18;11.50;54.90
28087;DHT22;15392;48.912;8.380;2024-02-21T07:42:04;11.50;54.80
28087;DHT22;15392;48.912;8.380;2024-02-21T07:44:50;11.50;54.90
28087;DHT22;15392;48.912;8.380;2024-02-21T07:47:37;11.60;55.00
28087;DHT22;15392;48.912;8.380;2024-02-21T07:50:23;11.70;55.00
28087;DHT22;15392;48.912;8.380;2024-02-21T07:53:09;11.70;54.90
28087;DHT22;15392;48.912;8.380;2024-02-21T07:55:55;11.70;54.80
28087;DHT22;15392;48.912;8.380;2024-02-21T07:58:41;11.80;54.90
28087;DHT22;15392;48.912;8.380;2024-02-21T08:01:27;11.80;54.80
28087;DHT22;15392;48.912;8.380;2024-02-21T08:04:13;11.90;54.80
28087;DHT22;15392;48.912;8.380;2024-02-21T08:07:00;12.00;54.80
28087;DHT22;15392;48.912;8.380;2024-02-21T08:09:49;12.00;54.80
28087;DHT22;15392;48.912;8.380;2024-02-21T08:12:35;12.10;54.80
28087;DHT22;15392;48.912;8.380;2024-02-21T08:15:22;12.10;54.60
28087;DHT22;15392;48.912;8.380;2024-02-21T08:18:11;12.20;54.50
28087;DHT22;15392;48.912;8.380;2024-02-21T08:20:57;12.20;54.50
28087;DHT22;15392;48.912;8.380;2024-02-21T08:23:46;12.30;54.50
28087;DHT22;15392;48.912;8.380;2024-02-21T08:26:39;12.40;54.50
28087;DHT22;15392;48.912;8.380;2024-02-21T08:29:26;12.40;54.60
28087;DHT22;15392;48.912;8.380;2024-02-21T08:32:12;12.40;54.20
28087;DHT22;15392;48.912;8.380;2024-02-21T08:34:58;12.50;54.20
28087;DHT22;15392;48.912;8.380;2024-02-21T08:37:45;12.60;54.30
28087;DHT22;15392;48.912;8.380;2024-02-21T08:40:33;12.60;54.30
28087;DHT22;15392;48.912;8.380;2024-02-21T08:43:20;12.60;54.20
28087;DHT22;15392;48.912;8.380;2024-02-21T08:46:06;12.70;54.20
28087;DHT22;15392;48.912;8.380;2024-02-21T08:48:53;12.80;54.20
28087;DHT22;15392;48.912;8.380;2024-02-21T08:51:39;12.80;54.20
28087;DHT22;15392;48.912;8.380;2024-02-21T08:54:25;12.90;54.20
28087;DHT22;15392;48.912;8.380;2024-02-21T08:57:11;13.00;54.20
28087;DHT22;15392;48.912;8.380;2024-02-21T08:59:59;13.20;54.30
28087;DHT22;15392;48.912;8.380;2024-02-21T09:02:45;13.30;54.30
28087;DHT22;15392;48.912;8.380;2024-02-21T09:05:31;13.40;54.20
28087;DHT22;15392;48.912;8.380;2024-02-21T09:11:59;13.70;53.90
28087;DHT22;15392;48.912;8.380;2024-02-21T09:14:51;14.00;54.10
28087;DHT22;15392;48.912;8.380;2024-02-21T09:17:37;14.10;54.30
28087;DHT22;15392;48.912;8.380;2024-02-21T09:20:25;14.30;54.40
28087;DHT22;15392;48.912;8.380;2024-02-21T09:23:12;14.60;54.60
28087;DHT22;15392;48.912;8.380;2024-02-21T09:25:58;14.90;54.70
28087;DHT22;15392;48.912;8.380;2024-02-21T09:28:46;15.20;54.60
28087;DHT22;15392;48.912;8.380;2024-02-21T09:31:32;15.50;54.30
28087;DHT22;15392;48.912;8.380;2024-02-21T09:34:18;15.80;53.70
28087;DHT22;15392;48.912;8.380;2024-02-21T09:37:04;16.10;53.30
28087;DHT22;15392;48.912;8.380;2024-02-21T09:39:50;16.30;53.00
28087;DHT22;15392;48.912;8.380;2024-02-21T09:42:39;16.50;52.90
28087;DHT22;15392;48.912;8.380;2024-02-21T09:45:26;16.70;52.50
28087;DHT22;15392;48.912;8.380;2024-02-21T09:51:14;17.00;51.70
28087;DHT22;15392;48.912;8.380;2024-02-21T09:54:01;17.10;51.80
28087;DHT22;15392;48.912;8.380;2024-02-21T09:56:48;17.10;51.50
28087;DHT22;15392;48.912;8.380;2024-02-21T09:59:35;17.10;51.20
28087;DHT22;15392;48.912;8.380;2024-02-21T10:02:21;17.10;51.10
28087;DHT22;15392;48.912;8.380;2024-02-21T10:05:07;17.00;50.80
28087;DHT22;15392;48.912;8.380;2024-02-21T10:07:55;17.00;50.90
28087;DHT22;15392;48.912;8.380;2024-02-21T10:10:43;17.00;50.70
28087;DHT22;15392;48.912;8.380;2024-02-21T10:13:30;16.90;50.60
28087;DHT22;15392;48.912;8.380;2024-02-21T10:16:16;16.80;50.30
28087;DHT22;15392;48.912;8.380;2024-02-21T10:19:02;16.70;50.90
28087;DHT22;15392;48.912;8.380;2024-02-21T10:22:05;16.70;51.00
28087;DHT22;15392;48.912;8.380;2024-02-21T10:24:53;16.70;50.90
28087;DHT22;15392;48.912;8.380;2024-02-21T10:27:40;16.60;51.20
28087;DHT22;15392;48.912;8.380;2024-02-21T10:30:27;16.60;51.30
28087;DHT22;15392;48.912;8.380;2024-02-21T10:33:15;16.60;51.40
28087;DHT22;15392;48.912;8.380;2024-02-21T10:36:09;16.60;51.10
28087;DHT22;15392;48.912;8.380;2024-02-21T10:38:56;16.60;51.20
28087;DHT22;15392;48.912;8.380;2024-02-21T10:41:42;16.60;51.60
28087;DHT22;15392;48.912;8.380;2024-02-21T10:44:37;16.60;51.70
28087;DHT22;15392;48.912;8.380;2024-02-21T10:47:25;16.60;51.60
28087;DHT22;15392;48.912;8.380;2024-02-21T10:50:15;16.60;51.20
28087;DHT22;15392;48.912;8.380;2024-02-21T10:56:50;16.60;50.60
28087;DHT22;15392;48.912;8.380;2024-02-21T10:59:37;16.60;51.00
28087;DHT22;15392;48.912;8.380;2024-02-21T11:02:26;16.60;51.10
28087;DHT22;15392;48.912;8.380;2024-02-21T11:05:16;16.60;50.30
28087;DHT22;15392;48.912;8.380;2024-02-21T11:08:03;16.70;50.40
28087;DHT22;15392;48.912;8.380;2024-02-21T11:10:56;16.60;50.60
28087;DHT22;15392;48.912;8.380;2024-02-21T11:13:43;16.60;50.70
28087;DHT22;15392;48.912;8.380;2024-02-21T11:16:35;16.70;50.60
28087;DHT22;15392;48.912;8.380;2024-02-21T11:19:27;16.70;50.30
28087;DHT22;15392;48.912;8.380;2024-02-21T11:22:17;16.70;50.70
28087;DHT22;15392;48.912;8.380;2024-02-21T11:25:08;16.80;50.80
28087;DHT22;15392;48.912;8.380;2024-02-21T11:28:01;16.80;50.60
28087;DHT22;15392;48.912;8.380;2024-02-21T11:30:48;16.90;50.90
28087;DHT22;15392;48.912;8.380;2024-02-21T11:33:40;16.90;50.30
28087;DHT22;15392;48.912;8.380;2024-02-21T11:36:29;16.90;50.20
28087;DHT22;15392;48.912;8.380;2024-02-21T11:39:19;16.90;49.50
28087;DHT22;15392;48.912;8.380;2024-02-21T11:42:08;16.90;50.10
28087;DHT22;15392;48.912;8.380;2024-02-21T11:44:55;16.90;50.00
28087;DHT22;15392;48.912;8.380;2024-02-21T11:47:45;16.90;50.50
28087;DHT22;15392;48.912;8.380;2024-02-21T11:50:33;16.90;49.90
28087;DHT22;15392;48.912;8.380;2024-02-21T11:53:20;16.90;50.10
28087;DHT22;15392;48.912;8.380;2024-02-21T11:56:07;16.90;50.10
28087;DHT22;15392;48.912;8.380;2024-02-21T11:58:53;16.90;50.10
28087;DHT22;15392;48.912;8.380;2024-02-21T12:01:39;16.90;50.00
28087;DHT22;15392;48.912;8.380;2024-02-21T12:04:25;16.90;50.10
28087;DHT22;15392;48.912;8.380;2024-02-21T12:07:11;17.00;50.00
28087;DHT22;15392;48.912;8.380;2024-02-21T12:09:59;17.00;49.20
28087;DHT22;15392;48.912;8.380;2024-02-21T12:12:46;17.00;49.90
28087;DHT22;15392;48.912;8.380;2024-02-21T12:15:32;17.00;49.80
28087;DHT22;15392;48.912;8.380;2024-02-21T12:18:18;17.00;49.90
28087;DHT22;15392;48.912;8.380;2024-02-21T12:21:05;17.00;49.80
28087;DHT22;15392;48.912;8.380;2024-02-21T12:23:51;17.00;50.10
28087;DHT22;15392;48.912;8.380;2024-02-21T12:26:37;17.10;49.40
28087;DHT22;15392;48.912;8.380;2024-02-21T12:29:23;17.10;49.70
28087;DHT22;15392;48.912;8.380;2024-02-21T12:32:14;17.10;49.70
28087;DHT22;15392;48.912;8.380;2024-02-21T12:35:00;17.10;50.20
28087;DHT22;15392;48.912;8.380;2024-02-21T12:37:46;17.10;50.20
28087;DHT22;15392;48.912;8.380;2024-02-21T12:40:32;17.10;50.10
28087;DHT22;15392;48.912;8.380;2024-02-21T12:43:18;17.10;50.00
28087;DHT22;15392;48.912;8.380;2024-02-21T12:46:05;17.20;49.90
28087;DHT22;15392;48.912;8.380;2024-02-21T12:48:53;17.20;49.80
28087;DHT22;15392;48.912;8.380;2024-02-21T12:51:39;17.30;50.30
28087;DHT22;15392;48.912;8.380;2024-02-21T12:54:27;17.20;50.40
28087;DHT22;15392;48.912;8.380;2024-02-21T12:57:15;17.30;50.50
28087;DHT22;15392;48.912;8.380;2024-02-21T13:00:01;17.30;50.50
28087;DHT22;15392;48.912;8.380;2024-02-21T13:02:49;17.30;50.60
28087;DHT22;15392;48.912;8.380;2024-02-21T13:05:36;17.40;51.00
28087;DHT22;15392;48.912;8.380;2024-02-21T13:08:22;17.40;50.50
28087;DHT22;15392;48.912;8.380;2024-02-21T13:11:08;17.40;50.40
28087;DHT22;15392;48.912;8.380;2024-02-21T13:13:54;17.40;50.20
28087;DHT22;15392;48.912;8.380;2024-02-21T13:16:40;17.40;50.40
28087;DHT22;15392;48.912;8.380;2024-02-21T13:19:26;17.50;50.10
28087;DHT22;15392;48.912;8.380;2024-02-21T13:22:12;17.50;49.80
28087;DHT22;15392;48.912;8.380;2024-02-21T13:24:58;17.50;49.20
28087;DHT22;15392;48.912;8.380;2024-02-21T13:27:44;17.40;49.70
28087;DHT22;15392;48.912;8.380;2024-02-21T13:30:30;17.50;49.90
28087;DHT22;15392;48.912;8.380;2024-02-21T13:33:16;17.50;50.00
28087;DHT22;15392;48.912;8.380;2024-02-21T13:36:03;17.50;50.20
28087;DHT22;15392;48.912;8.380;2024-02-21T13:38:49;17.50;50.20
28087;DHT22;15392;48.912;8.380;2024-02-21T13:41:37;17.50;50.10
28087;DHT22;15392;48.912;8.380;2024-02-21T13:44:23;17.50;50.30
28087;DHT22;15392;48.912;8.380;2024-02-21T13:47:09;17.50;50.30
28087;DHT22;15392;48.912;8.380;2024-02-21T13:49:56;17.50;50.10
28087;DHT22;15392;48.912;8.380;2024-02-21T13:52:43;17.50;49.80
28087;DHT22;15392;48.912;8.380;2024-02-21T13:55:29;17.50;49.80
28087;DHT22;15392;48.912;8.380;2024-02-21T13:58:15;17.50;50.00
28087;DHT22;15392;48.912;8.380;2024-02-21T14:01:03;17.50;49.70
28087;DHT22;15392;48.912;8.380;2024-02-21T14:03:49;17.50;49.90
28087;DHT22;15392;48.912;8.380;2024-02-21T14:06:38;17.40;50.00
28087;DHT22;15392;48.912;8.380;2024-02-21T14:09:34;17.40;50.20
28087;DHT22;15392;48.912;8.380;2024-02-21T14:12:23;17.50;50.00
28087;DHT22;15392;48.912;8.380;2024-02-21T14:15:09;17.50;50.10
28087;DHT22;15392;48.912;8.380;2024-02-21T14:17:56;17.50;50.00
28087;DHT22;15392;48.912;8.380;2024-02-21T14:20:43;17.50;50.10
28087;DHT22;15392;48.912;8.380;2024-02-21T14:23:29;17.50;49.80
28087;DHT22;15392;48.912;8.380;2024-02-21T14:26:15;17.40;50.10
28087;DHT22;15392;48.912;8.380;2024-02-21T14:29:01;17.40;50.30
28087;DHT22;15392;48.912;8.380;2024-02-21T14:31:48;17.40;50.20
28087;DHT22;15392;48.912;8.380;2024-02-21T14:34:34;17.50;50.40
28087;DHT22;15392;48.912;8.380;2024-02-21T14:37:20;17.50;50.20
28087;DHT22;15392;48.912;8.380;2024-02-21T14:40:07;17.40;50.10
28087;DHT22;15392;48.912;8.380;2024-02-21T14:42:54;17.40;50.20
28087;DHT22;15392;48.912;8.380;2024-02-21T14:45:40;17.40;50.30
28087;DHT22;15392;48.912;8.380;2024-02-21T14:48:26;17.40;50.10
28087;DHT22;15392;48.912;8.380;2024-02-21T14:51:14;17.40;50.00
28087;DHT22;15392;48.912;8.380;2024-02-21T14:54:00;17.40;50.20
28087;DHT22;15392;48.912;8.380;2024-02-21T14:56:46;17.50;50.40
28087;DHT22;15392;48.912;8.380;2024-02-21T14:59:32;17.50;50.20
28087;DHT22;15392;48.912;8.380;2024-02-21T15:02:18;17.40;50.40
28087;DHT22;15392;48.912;8.380;2024-02-21T15:05:05;17.40;50.30
28087;DHT22;15392;48.912;8.380;2024-02-21T15:07:51;17.50;50.30
28087;DHT22;15392;48.912;8.380;2024-02-21T15:10:38;17.40;50.50
28087;DHT22;15392;48.912;8.380;2024-02-21T15:13:24;17.40;50.50
28087;DHT22;15392;48.912;8.380;2024-02-21T15:16:10;17.50;50.40
28087;DHT22;15392;48.912;8.380;2024-02-21T15:18:56;17.40;50.20
28087;DHT22;15392;48.912;8.380;2024-02-21T15:21:42;17.50;50.20
28087;DHT22;15392;48.912;8.380;2024-02-21T15:24:28;17.40;50.10
28087;DHT22;15392;48.912;8.380;2024-02-21T15:27:15;17.40;50.00
28087;DHT22;15392;48.912;8.380;2024-02-21T15:30:02;17.40;49.90
28087;DHT22;15392;48.912;8.380;2024-02-21T15:32:48;17.40;50.00
28087;DHT22;15392;48.912;8.380;2024-02-21T15:35:34;17.40;50.20
28087;DHT22;15392;48.912;8.380;2024-02-21T15:38:20;17.30;50.20
28087;DHT22;15392;48.912;8.380;2024-02-21T15:41:06;17.30;50.20
28087;DHT22;15392;48.912;8.380;2024-02-21T15:43:52;17.30;50.20
28087;DHT22;15392;48.912;8.380;2024-02-21T15:46:39;17.30;50.10
28087;DHT22;15392;48.912;8.380;2024-02-21T15:49:25;17.30;49.90
28087;DHT22;15392;48.912;8.380;2024-02-21T15:52:11;17.30;50.30
28087;DHT22;15392;48.912;8.380;2024-02-21T15:54:58;17.30;50.40
28087;DHT22;15392;48.912;8.380;2024-02-21T15:57:44;17.20;50.50
28087;DHT22;15392;48.912;8.380;2024-02-21T16:00:30;17.20;50.50
28087;DHT22;15392;48.912;8.380;2024-02-21T16:03:18;17.20;50.50
28087;DHT22;15392;48.912;8.380;2024-02-21T16:06:04;17.20;50.50
28087;DHT22;15392;48.912;8.380;2024-02-21T16:08:50;17.20;50.60
28087;DHT22;15392;48.912;8.380;2024-02-21T16:11:38;17.20;50.60
28087;DHT22;15392;48.912;8.380;2024-02-21T16:14:24;17.20;50.70
28087;DHT22;15392;48.912;8.380;2024-02-21T16:17:12;17.10;50.60
28087;DHT22;15392;48.912;8.380;2024-02-21T16:19:58;17.10;50.60
28087;DHT22;15392;48.912;8.380;2024-02-21T16:22:46;17.10;50.50
28087;DHT22;15392;48.912;8.380;2024-02-21T16:25:33;17.00;50.50
28087;DHT22;15392;48.912;8.380;2024-02-21T16:28:19;17.00;50.50
28087;DHT22;15392;48.912;8.380;2024-02-21T16:31:05;17.00;50.40
28087;DHT22;15392;48.912;8.380;2024-02-21T16:33:51;16.90;50.50
28087;DHT22;15392;48.912;8.380;2024-02-21T16:36:37;16.90;50.60
28087;DHT22;15392;48.912;8.380;2024-02-21T16:39:26;16.80;50.50
28087;DHT22;15392;48.912;8.380;2024-02-21T16:42:13;16.80;50.60
28087;DHT22;15392;48.912;8.380;2024-02-21T16:44:59;16.80;50.80
28087;DHT22;15392;48.912;8.380;2024-02-21T16:47:46;16.70;50.80
28087;DHT22;15392;48.912;8.380;2024-02-21T16:50:44;16.70;50.90
28087;DHT22;15392;48.912;8.380;2024-02-21T16:53:30;16.60;50.80
28087;DHT22;15392;48.912;8.380;2024-02-21T16:56:16;16.60;50.80
28087;DHT22;15392;48.912;8.380;2024-02-21T16:59:04;16.60;50.80
28087;DHT22;15392;48.912;8.380;2024-02-21T17:01:51;16.50;50.80
28087;DHT22;15392;48.912;8.380;2024-02-21T17:04:37;16.50;50.90
28087;DHT22;15392;48.912;8.380;2024-02-21T17:07:23;16.40;51.00
28087;DHT22;15392;48.912;8.380;2024-02-21T17:10:09;16.30;51.00
28087;DHT22;15392;48.912;8.380;2024-02-21T17:12:55;16.40;51.10
28087;DHT22;15392;48.912;8.380;2024-02-21T17:15:41;16.30;51.10
28087;DHT22;15392;48.912;8.380;2024-02-21T17:18:27;16.30;51.20
28087;DHT22;15392;48.912;8.380;2024-02-21T17:21:13;16.20;51.20
28087;DHT22;15392;48.912;8.380;2024-02-21T17:24:00;16.20;51.20
28087;DHT22;15392;48.912;8.380;2024-02-21T17:26:48;16.10;51.20
28087;DHT22;15392;48.912;8.380;2024-02-21T17:29:34;16.10;51.10
28087;DHT22;15392;48.912;8.380;2024-02-21T17:32:20;16.10;51.10
28087;DHT22;15392;48.912;8.380;2024-02-21T17:35:06;16.00;51.10
28087;DHT22;15392;48.912;8.380;2024-02-21T17:37:53;16.00;51.60
28087;DHT22;15392;48.912;8.380;2024-02-21T17:40:39;16.00;50.90
28087;DHT22;15392;48.912;8.380;2024-02-21T17:43:25;16.00;50.80